RKPK/PUS METAR and TAF weather

Enter ICAO airport designator
Station Type Date Time Source
RKPK METAR 2021/04/13 22:00 UTC NOAA

RKPK 132200Z 36011KT CAVOK 08/M02 Q1016


Station Type Date Time Source
RKPK Decoded METAR 2021/04/13 22:00 UTC NOAA

Pusan / Kimhae International Airport, Korea, South (RKPK) 35-11N 128-56E 6M
Apr 13, 2021 - 06:00 PM EDT / 2021.04.13 2200 UTC
Wind: from the N (360 degrees) at 13 MPH (11 KT):0
Visibility: greater than 7 mile(s):0
Temperature: 46 F (8 C)
Dew Point: 28 F (-2 C)
Relative Humidity: 49%
Pressure (altimeter): 30.00 in. Hg (1016 hPa)
ob: RKPK 132200Z 36011KT CAVOK 08/M02 Q1016
cycle: 22

Station Type Date Time Source
RKPK TAF 2021/04/13 18:07 UTC NOAA

TAF RKPK 131700Z 1318/1424 35010KT CAVOK TN05/1321Z TX16/1406Z

Example: see airport list